sensor_id;sensor_type;location;lat;lon;timestamp;P1;durP1;ratioP1;P2;durP2;ratioP2
815;SDS011;25928;51.062;13.752;2023-02-28T00:00:24;6.00;;;3.83;;
815;SDS011;25928;51.062;13.752;2023-02-28T00:02:50;5.80;;;4.07;;
815;SDS011;25928;51.062;13.752;2023-02-28T00:05:18;5.00;;;4.40;;
815;SDS011;25928;51.062;13.752;2023-02-28T00:07:45;4.40;;;3.97;;
815;SDS011;25928;51.062;13.752;2023-02-28T00:10:12;5.90;;;4.10;;
815;SDS011;25928;51.062;13.752;2023-02-28T00:12:39;6.17;;;3.77;;
815;SDS011;25928;51.062;13.752;2023-02-28T00:15:07;5.60;;;4.30;;
815;SDS011;25928;51.062;13.752;2023-02-28T00:17:34;5.13;;;4.00;;
815;SDS011;25928;51.062;13.752;2023-02-28T00:20:00;8.17;;;4.37;;
815;SDS011;25928;51.062;13.752;2023-02-28T00:22:26;5.30;;;4.80;;
815;SDS011;25928;51.062;13.752;2023-02-28T00:24:52;5.47;;;4.90;;
815;SDS011;25928;51.062;13.752;2023-02-28T00:27:18;5.67;;;4.30;;
815;SDS011;25928;51.062;13.752;2023-02-28T00:29:43;8.33;;;5.10;;
815;SDS011;25928;51.062;13.752;2023-02-28T00:32:11;7.23;;;4.67;;
815;SDS011;25928;51.062;13.752;2023-02-28T00:34:36;6.40;;;4.70;;
815;SDS011;25928;51.062;13.752;2023-02-28T00:37:03;6.80;;;4.83;;
815;SDS011;25928;51.062;13.752;2023-02-28T00:39:30;5.87;;;3.80;;
815;SDS011;25928;51.062;13.752;2023-02-28T00:41:56;6.30;;;4.33;;
815;SDS011;25928;51.062;13.752;2023-02-28T00:44:21;5.13;;;4.63;;
815;SDS011;25928;51.062;13.752;2023-02-28T00:46:47;5.93;;;4.17;;
815;SDS011;25928;51.062;13.752;2023-02-28T00:49:13;9.50;;;5.10;;
815;SDS011;25928;51.062;13.752;2023-02-28T00:51:38;7.43;;;5.63;;
815;SDS011;25928;51.062;13.752;2023-02-28T00:54:04;5.70;;;4.80;;
815;SDS011;25928;51.062;13.752;2023-02-28T00:56:29;7.30;;;5.00;;
815;SDS011;25928;51.062;13.752;2023-02-28T00:58:55;6.63;;;5.77;;
815;SDS011;25928;51.062;13.752;2023-02-28T01:01:21;7.03;;;4.90;;
815;SDS011;25928;51.062;13.752;2023-02-28T01:03:46;6.80;;;4.80;;
815;SDS011;25928;51.062;13.752;2023-02-28T01:06:12;10.10;;;6.37;;
815;SDS011;25928;51.062;13.752;2023-02-28T01:08:38;6.30;;;4.90;;
815;SDS011;25928;51.062;13.752;2023-02-28T01:11:07;6.73;;;4.63;;
815;SDS011;25928;51.062;13.752;2023-02-28T01:13:35;7.07;;;5.73;;
815;SDS011;25928;51.062;13.752;2023-02-28T01:16:00;5.80;;;5.20;;
815;SDS011;25928;51.062;13.752;2023-02-28T01:18:26;6.23;;;4.57;;
815;SDS011;25928;51.062;13.752;2023-02-28T01:20:51;8.77;;;5.37;;
815;SDS011;25928;51.062;13.752;2023-02-28T01:23:18;8.20;;;5.00;;
815;SDS011;25928;51.062;13.752;2023-02-28T01:25:45;9.37;;;5.10;;
815;SDS011;25928;51.062;13.752;2023-02-28T01:28:10;4.63;;;4.20;;
815;SDS011;25928;51.062;13.752;2023-02-28T01:30:36;6.87;;;4.30;;
815;SDS011;25928;51.062;13.752;2023-02-28T01:33:02;6.77;;;5.30;;
815;SDS011;25928;51.062;13.752;2023-02-28T01:35:27;7.07;;;5.03;;
815;SDS011;25928;51.062;13.752;2023-02-28T01:37:53;5.90;;;4.60;;
815;SDS011;25928;51.062;13.752;2023-02-28T01:40:19;7.43;;;4.83;;
815;SDS011;25928;51.062;13.752;2023-02-28T01:42:45;7.30;;;4.60;;
815;SDS011;25928;51.062;13.752;2023-02-28T01:48:05;5.97;;;4.40;;
815;SDS011;25928;51.062;13.752;2023-02-28T01:50:37;5.53;;;4.60;;
815;SDS011;25928;51.062;13.752;2023-02-28T01:53:07;6.70;;;4.80;;
815;SDS011;25928;51.062;13.752;2023-02-28T01:55:36;7.87;;;4.43;;
815;SDS011;25928;51.062;13.752;2023-02-28T01:58:04;6.23;;;4.77;;
815;SDS011;25928;51.062;13.752;2023-02-28T02:00:32;6.23;;;4.93;;
815;SDS011;25928;51.062;13.752;2023-02-28T02:03:05;7.47;;;4.60;;
815;SDS011;25928;51.062;13.752;2023-02-28T02:05:34;7.00;;;5.23;;
815;SDS011;25928;51.062;13.752;2023-02-28T02:08:03;6.70;;;4.73;;
815;SDS011;25928;51.062;13.752;2023-02-28T02:10:34;9.00;;;5.00;;
815;SDS011;25928;51.062;13.752;2023-02-28T02:18:12;5.50;;;4.90;;
815;SDS011;25928;51.062;13.752;2023-02-28T02:26:37;6.43;;;4.97;;
815;SDS011;25928;51.062;13.752;2023-02-28T02:32:01;8.40;;;5.60;;
815;SDS011;25928;51.062;13.752;2023-02-28T02:37:40;7.17;;;5.63;;
815;SDS011;25928;51.062;13.752;2023-02-28T02:40:18;10.07;;;5.37;;
815;SDS011;25928;51.062;13.752;2023-02-28T02:42:51;7.53;;;5.37;;
815;SDS011;25928;51.062;13.752;2023-02-28T02:48:12;7.33;;;5.53;;
815;SDS011;25928;51.062;13.752;2023-02-28T02:50:45;7.77;;;6.10;;
815;SDS011;25928;51.062;13.752;2023-02-28T02:53:15;10.23;;;6.13;;
815;SDS011;25928;51.062;13.752;2023-02-28T02:55:44;6.97;;;5.33;;
815;SDS011;25928;51.062;13.752;2023-02-28T02:58:15;6.20;;;5.47;;
815;SDS011;25928;51.062;13.752;2023-02-28T03:00:46;8.97;;;7.00;;
815;SDS011;25928;51.062;13.752;2023-02-28T03:03:18;6.40;;;5.60;;
815;SDS011;25928;51.062;13.752;2023-02-28T03:05:54;8.23;;;5.80;;
815;SDS011;25928;51.062;13.752;2023-02-28T03:08:26;7.97;;;6.00;;
815;SDS011;25928;51.062;13.752;2023-02-28T03:11:00;6.87;;;5.80;;
815;SDS011;25928;51.062;13.752;2023-02-28T03:16:22;8.10;;;7.00;;
815;SDS011;25928;51.062;13.752;2023-02-28T03:21:43;9.83;;;6.37;;
815;SDS011;25928;51.062;13.752;2023-02-28T03:27:12;10.10;;;6.00;;
815;SDS011;25928;51.062;13.752;2023-02-28T03:29:50;10.03;;;6.27;;
815;SDS011;25928;51.062;13.752;2023-02-28T03:32:36;9.83;;;6.60;;
815;SDS011;25928;51.062;13.752;2023-02-28T03:35:25;8.30;;;6.70;;
815;SDS011;25928;51.062;13.752;2023-02-28T03:38:07;9.83;;;7.20;;
815;SDS011;25928;51.062;13.752;2023-02-28T03:40:51;9.17;;;7.30;;
815;SDS011;25928;51.062;13.752;2023-02-28T03:43:46;8.20;;;6.50;;
815;SDS011;25928;51.062;13.752;2023-02-28T03:46:36;9.17;;;7.00;;
815;SDS011;25928;51.062;13.752;2023-02-28T03:49:09;8.80;;;6.17;;
815;SDS011;25928;51.062;13.752;2023-02-28T03:52:09;10.73;;;7.60;;
815;SDS011;25928;51.062;13.752;2023-02-28T03:54:36;12.97;;;7.63;;
815;SDS011;25928;51.062;13.752;2023-02-28T03:57:12;11.30;;;7.70;;
815;SDS011;25928;51.062;13.752;2023-02-28T03:59:45;11.17;;;7.67;;
815;SDS011;25928;51.062;13.752;2023-02-28T04:02:17;7.90;;;6.93;;
815;SDS011;25928;51.062;13.752;2023-02-28T04:04:43;11.80;;;7.60;;
815;SDS011;25928;51.062;13.752;2023-02-28T04:07:13;12.63;;;8.87;;
815;SDS011;25928;51.062;13.752;2023-02-28T04:09:40;10.63;;;7.93;;
815;SDS011;25928;51.062;13.752;2023-02-28T04:12:06;12.43;;;7.97;;
815;SDS011;25928;51.062;13.752;2023-02-28T04:14:32;9.80;;;8.80;;
815;SDS011;25928;51.062;13.752;2023-02-28T04:16:58;10.80;;;8.00;;
815;SDS011;25928;51.062;13.752;2023-02-28T04:19:23;10.10;;;8.60;;
815;SDS011;25928;51.062;13.752;2023-02-28T04:21:50;10.10;;;9.03;;
815;SDS011;25928;51.062;13.752;2023-02-28T04:24:18;9.93;;;7.17;;
815;SDS011;25928;51.062;13.752;2023-02-28T04:26:51;10.43;;;8.20;;
815;SDS011;25928;51.062;13.752;2023-02-28T04:29:21;11.87;;;8.63;;
815;SDS011;25928;51.062;13.752;2023-02-28T04:31:48;11.70;;;9.07;;
815;SDS011;25928;51.062;13.752;2023-02-28T04:34:13;11.97;;;8.73;;
815;SDS011;25928;51.062;13.752;2023-02-28T04:36:39;12.70;;;9.50;;
815;SDS011;25928;51.062;13.752;2023-02-28T04:39:05;9.97;;;8.70;;
815;SDS011;25928;51.062;13.752;2023-02-28T04:41:30;10.87;;;9.20;;
815;SDS011;25928;51.062;13.752;2023-02-28T04:43:56;12.37;;;8.70;;
815;SDS011;25928;51.062;13.752;2023-02-28T04:46:22;10.00;;;7.97;;
815;SDS011;25928;51.062;13.752;2023-02-28T04:48:49;11.17;;;8.70;;
815;SDS011;25928;51.062;13.752;2023-02-28T04:51:15;11.67;;;9.93;;
815;SDS011;25928;51.062;13.752;2023-02-28T04:53:43;12.03;;;9.27;;
815;SDS011;25928;51.062;13.752;2023-02-28T04:56:10;12.70;;;9.13;;
815;SDS011;25928;51.062;13.752;2023-02-28T04:58:37;11.87;;;9.13;;
815;SDS011;25928;51.062;13.752;2023-02-28T05:01:05;15.03;;;10.10;;
815;SDS011;25928;51.062;13.752;2023-02-28T05:03:40;10.20;;;8.03;;
815;SDS011;25928;51.062;13.752;2023-02-28T05:06:06;13.20;;;9.60;;
815;SDS011;25928;51.062;13.752;2023-02-28T05:08:35;16.10;;;9.40;;
815;SDS011;25928;51.062;13.752;2023-02-28T05:11:01;12.20;;;9.33;;
815;SDS011;25928;51.062;13.752;2023-02-28T05:13:28;12.17;;;8.97;;
815;SDS011;25928;51.062;13.752;2023-02-28T05:15:54;11.70;;;8.80;;
815;SDS011;25928;51.062;13.752;2023-02-28T05:18:20;13.93;;;9.90;;
815;SDS011;25928;51.062;13.752;2023-02-28T05:20:45;12.57;;;8.97;;
815;SDS011;25928;51.062;13.752;2023-02-28T05:23:12;12.10;;;9.10;;
815;SDS011;25928;51.062;13.752;2023-02-28T05:25:38;14.00;;;9.80;;
815;SDS011;25928;51.062;13.752;2023-02-28T05:28:05;12.90;;;9.63;;
815;SDS011;25928;51.062;13.752;2023-02-28T05:30:31;10.50;;;8.93;;
815;SDS011;25928;51.062;13.752;2023-02-28T05:32:57;10.70;;;9.43;;
815;SDS011;25928;51.062;13.752;2023-02-28T05:35:23;10.17;;;8.90;;
815;SDS011;25928;51.062;13.752;2023-02-28T05:37:49;10.73;;;8.90;;
815;SDS011;25928;51.062;13.752;2023-02-28T05:40:15;14.77;;;9.53;;
815;SDS011;25928;51.062;13.752;2023-02-28T05:42:41;11.97;;;9.33;;
815;SDS011;25928;51.062;13.752;2023-02-28T05:45:07;13.70;;;9.60;;
815;SDS011;25928;51.062;13.752;2023-02-28T05:47:34;17.47;;;10.93;;
815;SDS011;25928;51.062;13.752;2023-02-28T05:50:00;10.70;;;9.60;;
815;SDS011;25928;51.062;13.752;2023-02-28T05:52:26;11.50;;;8.63;;
815;SDS011;25928;51.062;13.752;2023-02-28T05:54:52;18.60;;;10.87;;
815;SDS011;25928;51.062;13.752;2023-02-28T05:57:18;16.57;;;11.20;;
815;SDS011;25928;51.062;13.752;2023-02-28T05:59:44;15.00;;;11.03;;
815;SDS011;25928;51.062;13.752;2023-02-28T06:02:10;14.83;;;10.50;;
815;SDS011;25928;51.062;13.752;2023-02-28T06:04:38;13.47;;;10.20;;
815;SDS011;25928;51.062;13.752;2023-02-28T06:07:05;15.30;;;9.90;;
815;SDS011;25928;51.062;13.752;2023-02-28T06:09:31;24.20;;;10.23;;
815;SDS011;25928;51.062;13.752;2023-02-28T06:11:57;16.13;;;10.33;;
815;SDS011;25928;51.062;13.752;2023-02-28T06:14:24;13.60;;;10.77;;
815;SDS011;25928;51.062;13.752;2023-02-28T06:16:49;17.70;;;10.63;;
815;SDS011;25928;51.062;13.752;2023-02-28T06:19:15;13.50;;;10.47;;
815;SDS011;25928;51.062;13.752;2023-02-28T06:21:41;16.57;;;10.73;;
815;SDS011;25928;51.062;13.752;2023-02-28T06:24:07;13.03;;;10.30;;
815;SDS011;25928;51.062;13.752;2023-02-28T06:26:33;14.57;;;10.53;;
815;SDS011;25928;51.062;13.752;2023-02-28T06:28:59;17.90;;;10.00;;
815;SDS011;25928;51.062;13.752;2023-02-28T06:31:25;16.10;;;11.27;;
815;SDS011;25928;51.062;13.752;2023-02-28T06:33:51;14.40;;;10.43;;
815;SDS011;25928;51.062;13.752;2023-02-28T06:36:17;15.80;;;10.50;;
815;SDS011;25928;51.062;13.752;2023-02-28T06:38:43;12.53;;;9.43;;
815;SDS011;25928;51.062;13.752;2023-02-28T06:41:09;15.57;;;11.23;;
815;SDS011;25928;51.062;13.752;2023-02-28T06:43:36;16.03;;;9.90;;
815;SDS011;25928;51.062;13.752;2023-02-28T06:46:05;12.13;;;9.83;;
815;SDS011;25928;51.062;13.752;2023-02-28T06:48:32;14.23;;;10.30;;
815;SDS011;25928;51.062;13.752;2023-02-28T06:51:04;17.67;;;10.90;;
815;SDS011;25928;51.062;13.752;2023-02-28T06:53:32;16.20;;;9.97;;
815;SDS011;25928;51.062;13.752;2023-02-28T06:55:58;14.10;;;10.87;;
815;SDS011;25928;51.062;13.752;2023-02-28T06:58:24;17.97;;;11.60;;
815;SDS011;25928;51.062;13.752;2023-02-28T07:00:50;15.23;;;10.33;;
815;SDS011;25928;51.062;13.752;2023-02-28T07:03:17;13.40;;;10.80;;
815;SDS011;25928;51.062;13.752;2023-02-28T07:05:43;14.73;;;11.53;;
815;SDS011;25928;51.062;13.752;2023-02-28T07:08:09;14.07;;;10.83;;
815;SDS011;25928;51.062;13.752;2023-02-28T07:10:38;13.10;;;9.90;;
815;SDS011;25928;51.062;13.752;2023-02-28T07:13:05;11.53;;;10.03;;
815;SDS011;25928;51.062;13.752;2023-02-28T07:15:32;14.40;;;9.60;;
815;SDS011;25928;51.062;13.752;2023-02-28T07:17:57;13.40;;;9.93;;
815;SDS011;25928;51.062;13.752;2023-02-28T07:20:23;13.70;;;11.17;;
815;SDS011;25928;51.062;13.752;2023-02-28T07:22:49;13.80;;;10.10;;
815;SDS011;25928;51.062;13.752;2023-02-28T07:25:21;18.47;;;12.13;;
815;SDS011;25928;51.062;13.752;2023-02-28T07:27:48;16.43;;;10.53;;
815;SDS011;25928;51.062;13.752;2023-02-28T07:30:13;16.30;;;10.53;;
815;SDS011;25928;51.062;13.752;2023-02-28T07:32:39;16.20;;;11.30;;
815;SDS011;25928;51.062;13.752;2023-02-28T07:35:05;17.57;;;11.10;;
815;SDS011;25928;51.062;13.752;2023-02-28T07:37:31;21.73;;;10.40;;
815;SDS011;25928;51.062;13.752;2023-02-28T07:40:01;13.53;;;9.73;;
815;SDS011;25928;51.062;13.752;2023-02-28T07:42:34;13.80;;;10.20;;
815;SDS011;25928;51.062;13.752;2023-02-28T07:45:00;11.23;;;9.50;;
815;SDS011;25928;51.062;13.752;2023-02-28T07:47:26;19.20;;;9.93;;
815;SDS011;25928;51.062;13.752;2023-02-28T07:49:54;14.27;;;8.80;;
815;SDS011;25928;51.062;13.752;2023-02-28T07:52:20;12.60;;;9.80;;
815;SDS011;25928;51.062;13.752;2023-02-28T07:54:46;16.23;;;8.97;;
815;SDS011;25928;51.062;13.752;2023-02-28T07:57:11;14.03;;;9.93;;
815;SDS011;25928;51.062;13.752;2023-02-28T07:59:37;15.40;;;10.93;;
815;SDS011;25928;51.062;13.752;2023-02-28T08:02:03;13.00;;;9.30;;
815;SDS011;25928;51.062;13.752;2023-02-28T08:04:31;12.23;;;9.67;;
815;SDS011;25928;51.062;13.752;2023-02-28T08:06:57;13.20;;;9.73;;
815;SDS011;25928;51.062;13.752;2023-02-28T08:09:23;11.47;;;8.93;;
815;SDS011;25928;51.062;13.752;2023-02-28T08:11:49;13.80;;;10.00;;
815;SDS011;25928;51.062;13.752;2023-02-28T08:14:14;12.20;;;9.30;;
815;SDS011;25928;51.062;13.752;2023-02-28T08:16:40;14.57;;;10.37;;
815;SDS011;25928;51.062;13.752;2023-02-28T08:19:08;12.87;;;9.53;;
815;SDS011;25928;51.062;13.752;2023-02-28T08:21:34;13.10;;;9.70;;
815;SDS011;25928;51.062;13.752;2023-02-28T08:23:59;13.43;;;10.57;;
815;SDS011;25928;51.062;13.752;2023-02-28T08:26:25;17.07;;;10.03;;
815;SDS011;25928;51.062;13.752;2023-02-28T08:28:51;16.90;;;10.80;;
815;SDS011;25928;51.062;13.752;2023-02-28T08:31:17;12.97;;;9.93;;
815;SDS011;25928;51.062;13.752;2023-02-28T08:33:44;12.47;;;10.20;;
815;SDS011;25928;51.062;13.752;2023-02-28T08:36:10;14.30;;;9.10;;
815;SDS011;25928;51.062;13.752;2023-02-28T08:38:37;13.20;;;10.33;;
815;SDS011;25928;51.062;13.752;2023-02-28T08:41:06;12.70;;;10.30;;
815;SDS011;25928;51.062;13.752;2023-02-28T08:43:34;12.80;;;10.57;;
815;SDS011;25928;51.062;13.752;2023-02-28T08:46:01;14.60;;;10.50;;
815;SDS011;25928;51.062;13.752;2023-02-28T08:48:27;17.40;;;10.03;;
815;SDS011;25928;51.062;13.752;2023-02-28T08:53:24;12.63;;;9.70;;
815;SDS011;25928;51.062;13.752;2023-02-28T08:55:59;12.87;;;10.40;;
815;SDS011;25928;51.062;13.752;2023-02-28T08:58:27;18.93;;;10.40;;
815;SDS011;25928;51.062;13.752;2023-02-28T09:00:53;20.87;;;10.27;;
815;SDS011;25928;51.062;13.752;2023-02-28T09:03:19;14.80;;;9.53;;
815;SDS011;25928;51.062;13.752;2023-02-28T09:05:56;12.13;;;9.10;;
815;SDS011;25928;51.062;13.752;2023-02-28T09:08:23;12.23;;;9.17;;
815;SDS011;25928;51.062;13.752;2023-02-28T09:10:50;12.47;;;9.40;;
815;SDS011;25928;51.062;13.752;2023-02-28T09:13:16;12.67;;;8.80;;
815;SDS011;25928;51.062;13.752;2023-02-28T09:15:42;11.60;;;7.47;;
815;SDS011;25928;51.062;13.752;2023-02-28T09:18:07;10.43;;;7.33;;
815;SDS011;25928;51.062;13.752;2023-02-28T09:20:33;9.50;;;7.50;;
815;SDS011;25928;51.062;13.752;2023-02-28T09:22:58;12.70;;;8.30;;
815;SDS011;25928;51.062;13.752;2023-02-28T09:25:24;10.87;;;8.17;;
815;SDS011;25928;51.062;13.752;2023-02-28T09:27:50;14.23;;;8.20;;
815;SDS011;25928;51.062;13.752;2023-02-28T09:30:15;12.77;;;8.07;;
815;SDS011;25928;51.062;13.752;2023-02-28T09:32:41;9.10;;;7.50;;
815;SDS011;25928;51.062;13.752;2023-02-28T09:35:07;9.00;;;8.07;;
815;SDS011;25928;51.062;13.752;2023-02-28T09:37:38;12.37;;;9.63;;
815;SDS011;25928;51.062;13.752;2023-02-28T09:40:04;10.10;;;8.30;;
815;SDS011;25928;51.062;13.752;2023-02-28T09:42:31;14.57;;;8.97;;
815;SDS011;25928;51.062;13.752;2023-02-28T09:44:58;13.00;;;8.53;;
815;SDS011;25928;51.062;13.752;2023-02-28T09:47:28;10.10;;;8.47;;
815;SDS011;25928;51.062;13.752;2023-02-28T09:49:58;11.07;;;7.90;;
815;SDS011;25928;51.062;13.752;2023-02-28T09:52:32;11.10;;;8.23;;
815;SDS011;25928;51.062;13.752;2023-02-28T09:57:44;8.10;;;5.73;;
815;SDS011;25928;51.062;13.752;2023-02-28T10:03:19;13.83;;;7.10;;
815;SDS011;25928;51.062;13.752;2023-02-28T10:11:41;12.37;;;8.13;;
815;SDS011;25928;51.062;13.752;2023-02-28T10:14:15;12.00;;;7.43;;
815;SDS011;25928;51.062;13.752;2023-02-28T10:19:57;9.40;;;7.17;;
815;SDS011;25928;51.062;13.752;2023-02-28T10:22:28;13.93;;;6.67;;
815;SDS011;25928;51.062;13.752;2023-02-28T10:24:55;12.90;;;6.80;;
815;SDS011;25928;51.062;13.752;2023-02-28T10:27:26;8.97;;;6.60;;
815;SDS011;25928;51.062;13.752;2023-02-28T10:29:55;8.77;;;7.00;;
815;SDS011;25928;51.062;13.752;2023-02-28T10:32:24;11.40;;;7.57;;
815;SDS011;25928;51.062;13.752;2023-02-28T10:35:06;10.90;;;7.17;;
815;SDS011;25928;51.062;13.752;2023-02-28T10:37:40;10.37;;;7.80;;
815;SDS011;25928;51.062;13.752;2023-02-28T10:42:54;8.27;;;7.47;;
815;SDS011;25928;51.062;13.752;2023-02-28T10:45:20;12.23;;;8.10;;
815;SDS011;25928;51.062;13.752;2023-02-28T10:47:50;10.77;;;8.77;;
815;SDS011;25928;51.062;13.752;2023-02-28T11:01:18;12.07;;;9.63;;
815;SDS011;25928;51.062;13.752;2023-02-28T11:04:17;10.50;;;8.07;;
815;SDS011;25928;51.062;13.752;2023-02-28T11:07:16;12.90;;;8.97;;
815;SDS011;25928;51.062;13.752;2023-02-28T11:09:45;12.00;;;9.00;;
815;SDS011;25928;51.062;13.752;2023-02-28T11:12:21;12.37;;;9.10;;
815;SDS011;25928;51.062;13.752;2023-02-28T11:14:58;10.73;;;8.57;;
815;SDS011;25928;51.062;13.752;2023-02-28T11:17:30;12.87;;;9.20;;
815;SDS011;25928;51.062;13.752;2023-02-28T11:20:06;11.73;;;9.83;;
815;SDS011;25928;51.062;13.752;2023-02-28T11:22:43;11.77;;;7.87;;
815;SDS011;25928;51.062;13.752;2023-02-28T11:25:20;12.27;;;8.13;;
815;SDS011;25928;51.062;13.752;2023-02-28T11:27:50;9.70;;;8.07;;
815;SDS011;25928;51.062;13.752;2023-02-28T11:33:22;10.07;;;8.60;;
815;SDS011;25928;51.062;13.752;2023-02-28T11:35:57;13.20;;;9.33;;
815;SDS011;25928;51.062;13.752;2023-02-28T11:38:27;10.83;;;9.03;;
815;SDS011;25928;51.062;13.752;2023-02-28T11:49:35;11.00;;;9.07;;
815;SDS011;25928;51.062;13.752;2023-02-28T11:52:21;12.27;;;7.83;;
815;SDS011;25928;51.062;13.752;2023-02-28T12:03:20;11.07;;;8.80;;
815;SDS011;25928;51.062;13.752;2023-02-28T12:08:44;16.00;;;9.70;;
815;SDS011;25928;51.062;13.752;2023-02-28T12:11:39;13.73;;;9.33;;
815;SDS011;25928;51.062;13.752;2023-02-28T12:16:55;11.83;;;9.30;;
815;SDS011;25928;51.062;13.752;2023-02-28T12:19:44;10.10;;;8.40;;
815;SDS011;25928;51.062;13.752;2023-02-28T12:22:30;11.90;;;7.87;;
815;SDS011;25928;51.062;13.752;2023-02-28T12:28:06;11.40;;;8.70;;
815;SDS011;25928;51.062;13.752;2023-02-28T12:30:35;12.27;;;8.90;;
815;SDS011;25928;51.062;13.752;2023-02-28T12:33:09;11.10;;;8.77;;
815;SDS011;25928;51.062;13.752;2023-02-28T12:35:43;11.73;;;9.83;;
815;SDS011;25928;51.062;13.752;2023-02-28T12:38:34;12.37;;;9.83;;
815;SDS011;25928;51.062;13.752;2023-02-28T12:41:03;18.90;;;10.00;;
815;SDS011;25928;51.062;13.752;2023-02-28T12:43:43;10.33;;;8.50;;
815;SDS011;25928;51.062;13.752;2023-02-28T12:46:20;12.60;;;8.67;;
815;SDS011;25928;51.062;13.752;2023-02-28T12:51:21;13.50;;;8.97;;
815;SDS011;25928;51.062;13.752;2023-02-28T12:59:01;15.90;;;10.03;;
815;SDS011;25928;51.062;13.752;2023-02-28T13:09:17;15.27;;;10.63;;
815;SDS011;25928;51.062;13.752;2023-02-28T13:11:45;11.03;;;9.17;;
815;SDS011;25928;51.062;13.752;2023-02-28T13:16:59;11.97;;;9.27;;
815;SDS011;25928;51.062;13.752;2023-02-28T13:19:42;10.63;;;8.87;;
815;SDS011;25928;51.062;13.752;2023-02-28T13:25:00;12.10;;;9.37;;
815;SDS011;25928;51.062;13.752;2023-02-28T13:27:36;10.27;;;8.50;;
815;SDS011;25928;51.062;13.752;2023-02-28T13:38:41;13.70;;;10.07;;
815;SDS011;25928;51.062;13.752;2023-02-28T13:46:34;13.20;;;10.13;;
815;SDS011;25928;51.062;13.752;2023-02-28T13:51:48;17.73;;;12.10;;
815;SDS011;25928;51.062;13.752;2023-02-28T14:02:28;12.70;;;10.70;;
815;SDS011;25928;51.062;13.752;2023-02-28T14:05:13;14.57;;;11.17;;
815;SDS011;25928;51.062;13.752;2023-02-28T14:07:49;16.73;;;11.50;;
815;SDS011;25928;51.062;13.752;2023-02-28T14:10:22;12.30;;;10.30;;
815;SDS011;25928;51.062;13.752;2023-02-28T14:18:14;13.20;;;10.63;;
815;SDS011;25928;51.062;13.752;2023-02-28T14:20:49;12.60;;;10.97;;
815;SDS011;25928;51.062;13.752;2023-02-28T14:23:32;14.50;;;11.13;;
815;SDS011;25928;51.062;13.752;2023-02-28T14:26:34;19.60;;;12.27;;
815;SDS011;25928;51.062;13.752;2023-02-28T14:32:32;17.07;;;11.10;;
815;SDS011;25928;51.062;13.752;2023-02-28T14:37:50;24.93;;;12.47;;
815;SDS011;25928;51.062;13.752;2023-02-28T14:40:17;13.70;;;11.27;;
815;SDS011;25928;51.062;13.752;2023-02-28T14:43:05;14.73;;;11.40;;
815;SDS011;25928;51.062;13.752;2023-02-28T14:45:43;15.07;;;10.40;;
815;SDS011;25928;51.062;13.752;2023-02-28T14:48:14;13.70;;;10.50;;
815;SDS011;25928;51.062;13.752;2023-02-28T14:50:42;17.77;;;11.73;;
815;SDS011;25928;51.062;13.752;2023-02-28T14:53:18;14.90;;;10.60;;
815;SDS011;25928;51.062;13.752;2023-02-28T14:55:46;12.50;;;10.00;;
815;SDS011;25928;51.062;13.752;2023-02-28T14:58:20;13.40;;;11.10;;
815;SDS011;25928;51.062;13.752;2023-02-28T15:00:51;19.60;;;12.03;;
815;SDS011;25928;51.062;13.752;2023-02-28T15:03:21;13.63;;;11.40;;
815;SDS011;25928;51.062;13.752;2023-02-28T15:06:03;14.07;;;10.23;;
815;SDS011;25928;51.062;13.752;2023-02-28T15:08:40;20.30;;;11.13;;
815;SDS011;25928;51.062;13.752;2023-02-28T15:11:07;12.47;;;10.53;;
815;SDS011;25928;51.062;13.752;2023-02-28T15:13:44;12.40;;;10.73;;
815;SDS011;25928;51.062;13.752;2023-02-28T15:16:25;15.93;;;11.67;;
815;SDS011;25928;51.062;13.752;2023-02-28T15:19:05;17.37;;;11.60;;
815;SDS011;25928;51.062;13.752;2023-02-28T15:21:35;13.80;;;11.50;;
815;SDS011;25928;51.062;13.752;2023-02-28T15:24:05;15.90;;;11.37;;
815;SDS011;25928;51.062;13.752;2023-02-28T15:26:56;12.83;;;10.70;;
815;SDS011;25928;51.062;13.752;2023-02-28T15:29:23;14.87;;;10.97;;
815;SDS011;25928;51.062;13.752;2023-02-28T15:32:06;13.97;;;11.17;;
815;SDS011;25928;51.062;13.752;2023-02-28T15:34:39;13.10;;;10.17;;
815;SDS011;25928;51.062;13.752;2023-02-28T15:39:51;15.60;;;11.33;;
815;SDS011;25928;51.062;13.752;2023-02-28T15:42:18;14.57;;;11.20;;
815;SDS011;25928;51.062;13.752;2023-02-28T15:44:45;16.53;;;11.27;;
815;SDS011;25928;51.062;13.752;2023-02-28T15:47:16;15.90;;;11.60;;
815;SDS011;25928;51.062;13.752;2023-02-28T15:49:48;14.30;;;11.67;;
815;SDS011;25928;51.062;13.752;2023-02-28T15:52:21;12.83;;;11.23;;
815;SDS011;25928;51.062;13.752;2023-02-28T15:54:52;12.73;;;10.70;;
815;SDS011;25928;51.062;13.752;2023-02-28T15:57:22;18.33;;;11.37;;
815;SDS011;25928;51.062;13.752;2023-02-28T15:59:55;15.53;;;11.53;;
815;SDS011;25928;51.062;13.752;2023-02-28T16:02:30;16.03;;;11.60;;
815;SDS011;25928;51.062;13.752;2023-02-28T16:07:36;31.10;;;18.57;;
815;SDS011;25928;51.062;13.752;2023-02-28T16:10:04;15.00;;;12.13;;
815;SDS011;25928;51.062;13.752;2023-02-28T16:12:32;19.00;;;11.50;;
815;SDS011;25928;51.062;13.752;2023-02-28T16:15:01;15.60;;;11.37;;
815;SDS011;25928;51.062;13.752;2023-02-28T16:17:33;20.20;;;11.40;;
815;SDS011;25928;51.062;13.752;2023-02-28T16:20:05;23.87;;;11.77;;
815;SDS011;25928;51.062;13.752;2023-02-28T16:22:41;17.53;;;13.33;;
815;SDS011;25928;51.062;13.752;2023-02-28T16:25:11;17.10;;;12.57;;
815;SDS011;25928;51.062;13.752;2023-02-28T16:27:38;15.07;;;12.77;;
815;SDS011;25928;51.062;13.752;2023-02-28T16:30:05;18.63;;;12.37;;
815;SDS011;25928;51.062;13.752;2023-02-28T16:32:34;17.20;;;11.93;;
815;SDS011;25928;51.062;13.752;2023-02-28T16:35:01;13.83;;;11.50;;
815;SDS011;25928;51.062;13.752;2023-02-28T16:37:27;14.67;;;11.87;;
815;SDS011;25928;51.062;13.752;2023-02-28T16:39:53;13.50;;;11.27;;
815;SDS011;25928;51.062;13.752;2023-02-28T16:42:22;15.73;;;12.00;;
815;SDS011;25928;51.062;13.752;2023-02-28T16:44:52;18.70;;;12.10;;
815;SDS011;25928;51.062;13.752;2023-02-28T16:47:18;18.57;;;13.27;;
815;SDS011;25928;51.062;13.752;2023-02-28T16:49:45;20.03;;;12.17;;
815;SDS011;25928;51.062;13.752;2023-02-28T16:52:12;18.47;;;12.07;;
815;SDS011;25928;51.062;13.752;2023-02-28T16:54:39;15.83;;;11.70;;
815;SDS011;25928;51.062;13.752;2023-02-28T16:57:05;17.20;;;11.53;;
815;SDS011;25928;51.062;13.752;2023-02-28T16:59:40;18.53;;;12.83;;
815;SDS011;25928;51.062;13.752;2023-02-28T17:02:13;18.77;;;13.67;;
815;SDS011;25928;51.062;13.752;2023-02-28T17:04:40;15.57;;;12.20;;
815;SDS011;25928;51.062;13.752;2023-02-28T17:07:10;17.80;;;11.87;;
815;SDS011;25928;51.062;13.752;2023-02-28T17:09:37;18.43;;;11.83;;
815;SDS011;25928;51.062;13.752;2023-02-28T17:12:03;21.10;;;12.70;;
815;SDS011;25928;51.062;13.752;2023-02-28T17:14:29;15.90;;;12.30;;
815;SDS011;25928;51.062;13.752;2023-02-28T17:16:56;19.93;;;11.77;;
815;SDS011;25928;51.062;13.752;2023-02-28T17:19:21;15.23;;;12.80;;
815;SDS011;25928;51.062;13.752;2023-02-28T17:21:47;15.07;;;11.23;;
815;SDS011;25928;51.062;13.752;2023-02-28T17:24:12;18.07;;;12.60;;
815;SDS011;25928;51.062;13.752;2023-02-28T17:26:39;17.87;;;12.83;;
815;SDS011;25928;51.062;13.752;2023-02-28T17:29:10;19.80;;;12.90;;
815;SDS011;25928;51.062;13.752;2023-02-28T17:31:42;19.43;;;13.07;;
815;SDS011;25928;51.062;13.752;2023-02-28T17:34:08;18.10;;;13.07;;